NCAR-RAP Real-Time Weather Data

Output produced by METARs form (14 October 2019  23:19 UTC)
found at http://weather.rap.ucar.edu/surface/
 
KEVV 142254Z AUTO 00000KT 10SM CLR 14/03 A3007 RMK AO2 SLP183 T01390033
KEVV 142154Z AUTO 00000KT 9SM CLR 22/M01 A3008 RMK AO2 SLP184 T02171006
KEVV 142054Z AUTO 00000KT 10SM CLR 22/00 A3008 RMK AO2 SLP183 T02220000 56015
KEVV 141954Z AUTO 00000KT 10SM CLR 21/M01 A3008 RMK AO2 SLP185 T02111006
KEVV 141854Z 26005KT 10SM CLR 21/00 A3010 RMK AO2 SLP189 T02110000
KEVV 141754Z 23008KT 10SM CLR 20/02 A3012 RMK AO2 SLP197 T02000017 10200 20039 58008
KEVV 141654Z VRB03KT 10SM CLR 18/01 A3014 RMK AO2 SLP206 T01830006
KEVV 141554Z 21005KT 10SM CLR 18/02 A3014 RMK AO2 SLP207 T01780022
KEVV 141454Z VRB03KT 10SM CLR 15/06 A3014 RMK AO2 SLP206 T01500056 51015
KEVV 141354Z 24004KT 10SM CLR 11/06 A3014 RMK AO2 SLP204 T01060061
KEVV 141254Z 00000KT 10SM CLR 07/05 A3012 RMK AO2 SLP198 T00670050
KEVV 141154Z 00000KT 10SM CLR 04/03 A3010 RMK AO2 SLP192 T00440028 10094 20039 51017
KEVV 141054Z 26003KT 10SM CLR 05/03 A3009 RMK AO2 SLP189 T00500028
KEVV 140954Z AUTO 00000KT 10SM CLR 07/04 A3006 RMK AO2 SLP179 T00670039
KEVV 140854Z AUTO 00000KT 10SM CLR 07/03 A3005 RMK AO2 SLP175 T00670033 51011
KEVV 140754Z AUTO 00000KT 10SM CLR 07/04 A3004 RMK AO2 SLP171 T00720039
KEVV 140654Z AUTO 00000KT 10SM CLR 09/03 A3003 RMK AO2 SLP169 T00940033
KEVV 140554Z AUTO 21006KT 10SM CLR 09/03 A3002 RMK AO2 SLP163 T00940033 10139 20083 402110017 51004
KEVV 140454Z AUTO 22006KT 10SM CLR 09/03 A3001 RMK AO2 SLP162 T00890033
KEVV 140354Z AUTO 22007KT 10SM CLR 09/04 A3001 RMK AO2 SLP162 T00940039
KEVV 140254Z 22005KT 10SM CLR 12/03 A3000 RMK AO2 SLP159 T01170033 51013
KEVV 140154Z 20005KT 10SM CLR 12/03 A2999 RMK AO2 SLP157 T01220028
KEVV 140054Z 22005KT 10SM CLR 12/03 A2999 RMK AO2 SLP156 T01170033
KEVV 132354Z 21005KT 10SM CLR 13/02 A2997 RMK AO2 SLP148 T01330022 10211 20133 53003
KEVV 132254Z 22008KT 10SM CLR 17/02 A2995 RMK AO2 SLP143 T01720022
KEVV 132154Z 24011KT 10SM CLR 20/01 A2996 RMK AO2 SLP143 T02000011
KEVV 132054Z 21009G20KT 10SM CLR 21/01 A2996 RMK AO2 SLP143 T02060011 56013
KEVV 131954Z 21010KT 10SM CLR 21/01 A2997 RMK AO2 SLP146 T02060011
KEVV 131854Z 23010KT 10SM CLR 19/02 A2997 RMK AO2 SLP149 T01940017
KEVV 131754Z 22010KT 10SM CLR 18/02 A2999 RMK AO2 SLP156 T01830022 10189 20017 58016
KEVV 131654Z 25008KT 10SM CLR 17/02 A3002 RMK AO2 SLP164 T01670017
KEVV 131554Z 10SM CLR 15/03 A3003 RMK AO2 SLP170 T01500033
KEVV 131454Z 21009KT 10SM CLR 13/03 A3004 RMK AO2 SLP173 T01280033 58002 $
KEVV 131354Z 21006KT 10SM CLR 09/04 A3005 RMK AO2 SLP175 T00940044 $
KEVV 131254Z 00000KT 10SM CLR 04/03 A3005 RMK AO2 SLP176 T00440028 $
KEVV 131158Z 10SM R22/2800VP6000FT CLR 02/01 A3005 RMK AO2 T00220006 $
KEVV 131156Z 3/4SM R22/2800VP6000FT BR VV002 02/01 A3005 RMK AO2 VIS 1/4V5 T00220006 $
KEVV 131154Z 02003KT 1 3/4SM R22/3000VP6000FT BR FEW002 02/01 A3005 RMK AO2 VIS 1/4V5 SLP176 T00220006 10056 20017 51003 $
KEVV 131054Z 00000KT 10SM CLR 02/01 A3005 RMK AO2 SLP176 T00220006 $
KEVV 130954Z AUTO 00000KT 10SM CLR 03/01 A3004 RMK AO2 SLP173 T00330011 $
KEVV 130854Z AUTO 00000KT 10SM CLR 03/01 A3004 RMK AO2 SLP172 T00280011 58003 $
KEVV 130754Z AUTO 00000KT 10SM CLR 04/01 A3005 RMK AO2 SLP176 T00390011 $
KEVV 130654Z AUTO 00000KT 10SM CLR 04/01 A3006 RMK AO2 SLP179 T00440006 $
KEVV 130554Z AUTO 00000KT 10SM CLR 06/01 A3005 RMK AO2 SLP175 T00560011 10100 20056 401390011 56012 $
KEVV 130454Z AUTO 18004KT 10SM CLR 06/01 A3005 RMK AO2 SLP177 T00560011 $
KEVV 130354Z AUTO 00000KT 10SM CLR 07/01 A3007 RMK AO2 SLP182 T00670006 $
KEVV 130254Z 19005KT 10SM CLR 07/01 A3008 RMK AO2 SLP188 T00670006 58000 $
KEVV 130154Z 19004KT 10SM CLR 09/00 A3009 RMK AO2 SLP191 T00890000 $
KEVV 130054Z 15004KT 10SM CLR 09/01 A3009 RMK AO2 SLP189 T00890006 $
KEVV 122354Z 17005KT 10SM CLR 10/00 A3008 RMK AO2 SLP188 T01000000 10139 20089 56013 $